Portada
METAR-TAF:

METAR-TAF

Aeroports :

Dimapur, Índia

latitud: 25-53-02N, longitud: 093-46-16E, altitud: 148 m

Observació

L'informe es va fer fa 5 hores i 11 minuts, a les 08:00 UTC
Vent 2 kt del Est/Nord-Est
Temperatura 27°C
Humitat 42%
Pressió 1012 hPa
Visibilitat: 6000 m
Escasses núvols a una alçada de 2000 ft

METAR: VEMR 020800Z 06002KT 6000 FEW020 27/13 Q1012

Hora: 18:41 (13:11 UTC)

Pronòstic

L'informe es va fer fa 5 hores i 11 minuts, a les 08:00 UTC
Pronòstic vàlid del 02 a les 09 UTC al 02 a les 18 UTC
Vent 5 kt del Oest
Visibilitat: 5000 m
Escasses núvols a una alçada de 2000 ft
calitja
Evolucionant progressivament
l' 02 a les 13 UTC al 02 a les 15 UTC
Vent kt del Nord
Visibilitat: 3000 m
Escasses núvols a una alçada de 1800 ft
boirina

TAF: VEMR 020800Z 0209/0218 28005KT 5000 HZ FEW020 BECMG 0213/0215 00000KT 3000 BR FEW018

Observacions i pronòstics meteorològics de més de 4000 aeroports (METAR i TAF).

Les estacions disponibles són els punts grocs i vermells al mapa.

Posi el ratolí al punt desitjat per veure el nom de l'estació.

Feu clic per veure les observacions i els pronòstics meteorològics.

Per canviar el mapa: feu clic els botons verds amb una creu de color negre per apropar; al botó verd amb un guió per allunyar la imatge; o en les fletxes verdes per a mapes adjacents.


METAR-TAF: